Redding Municipal Airport
KRDD : now visible

Airfield :











YOU CAN JOIN US ON...

 
LOGIN :

Register | Disclaimer

   EN    FR    IT 

 









Legend :    VFR   Marginal VFR   IFR   Intensive IFR   Very Intensive IFR
Visi :
Ceiling :
>= 8 km
>= 3000ft
5 to 8 km
1000 to 3000 ft
1500m to 5 km
500 to 1000 ft
800 to 1500m
200 to 500 ft
< 800m
< 200 ft
Symbols :   Thunderstorms  Fog  Heavy snow  Heavy precipitations  Wind > 20 kt






- Airport Elevation : 505 ft
- IATA code : RDD


KRDD - Redding Municipal

CURRENT METAR :
  • 051953Z 35005KT 7SM SCT004 BKN017 OVC039 12/10 A3010 RMK AO2 SLP192 T01170100

EXPIRED METARs :
  • 051900Z 34003KT 5SM BR FEW004 OVC020 11/09 A3012 RMK AO2 T01060094
  • 051853Z 33004KT 2SM BR FEW004 OVC018 11/09 A3012 RMK AO2 RAE13B34E46 SLP199 P0002 T01060094
  • 051811Z 30003KT 2SM -RA BR FEW005 BKN021 OVC025 11/09 A3013 RMK AO2 P0001 T01060094
  • 051753Z 33003KT 2SM -RA BR OVC020 10/09 A3012 RMK AO2 RAE06B28 SLP198 P0005 60012 T01000094 10100 20100 53012
  • 051734Z 32003KT 2SM -RA BR BKN018 OVC022 10/09 A3011 RMK AO2 RAE06B28 P0001 T01000089

TAF KRDD
Valid from the 05 at 18:00 until the 06 at 18:00 UTC


051725Z 0518/0618 VRB03KT 6SM BR SCT005 OVC025
TEMPO 0518/0520 3SM BR
FM052000 VRB04KT P6SM VCSH FEW005 OVC020
FM061200 02003KT 4SM -SHRA BR SCT015 OVC025



MET'MAP, your aeronautical weather chart ! - Copyright ORBIFLY December 2007 - Disclaimer

ORBIFLY MET'MAP TEAM :

Programming & Development : Alexandra Zaïnal
Concept & original design : Baudouin d'Aumeries
Assistance for programming : Marc-Olivier Méhu
Technical & hardware support : Manuel Goepfert

Contact : metmap@orbifly.com




SOURCES & CREDITS :

   NOAA       Earth
Advisory